Tijuana, BCN, Mexico
Current Conditions -  °F | °C
As of 2:45 PM on Thursday 27 Nov 2014 (Local Time) from MMTJ Reporting Station
Clear Clear  
Wind Chill: 82°   Ceiling: Unl
Heat Index: 82°   Visibility: 8mi
Dew Point: 14°   Wind: 9mph
Humidity: 8%   Direction: 310°NW
Pressure: 30.04"   Gusts: NA
Location:  32.53°N, 117.02°W
Report Text: MMTJ 272245Z 31008KT 8SM SKC 28/M10 A3004 RMK HZY ISOL CI
Loading
Personal Weather Stations






























Interactive Weather Map New forecast layout! Learn more

10-Day Weather Forecast

Advertisements
Track Severe Weather on mobile